createdAt,value
2023-05-11T00:02:21.203Z,52.41
2023-05-11T00:07:22.993Z,52.42
2023-05-11T00:12:24.636Z,52.53
2023-05-11T00:17:26.376Z,54.26
2023-05-11T00:22:27.957Z,54.35
2023-05-11T00:27:29.565Z,52.72
2023-05-11T00:32:31.410Z,53.84
2023-05-11T00:37:33.039Z,53.60
2023-05-11T00:42:34.967Z,51.60
2023-05-11T00:47:37.693Z,54.52
2023-05-11T00:52:39.424Z,52.92
2023-05-11T00:57:41.527Z,53.71
2023-05-11T01:02:43.261Z,52.38
2023-05-11T01:08:05.875Z,52.15
2023-05-11T01:13:26.732Z,53.80
2023-05-11T01:18:38.508Z,53.54
2023-05-11T01:24:01.562Z,54.15
2023-05-11T01:29:36.918Z,52.21
2023-05-11T01:34:40.461Z,51.62
2023-05-11T01:39:55.145Z,52.72
2023-05-11T01:44:58.176Z,52.40
2023-05-11T01:50:01.672Z,53.54
2023-05-11T01:55:05.957Z,52.37
2023-05-11T02:00:08.832Z,53.06
2023-05-11T02:05:11.868Z,54.20
2023-05-11T02:10:15.815Z,55.02
2023-05-11T02:15:17.838Z,54.45
2023-05-11T02:20:20.753Z,52.13
2023-05-11T02:25:23.819Z,54.32
2023-05-11T02:30:27.680Z,54.31
2023-05-11T02:35:31.969Z,53.05
2023-05-11T02:40:36.882Z,52.88
2023-05-11T02:45:41.398Z,53.18
2023-05-11T02:50:43.716Z,54.85
2023-05-11T02:55:45.988Z,56.00
2023-05-11T03:00:48.427Z,54.15
2023-05-11T03:05:50.257Z,55.21
2023-05-11T03:10:53.010Z,55.29
2023-05-11T03:15:55.323Z,53.87
2023-05-11T03:20:59.498Z,55.89
2023-05-11T03:26:01.618Z,56.22
2023-05-11T03:31:03.548Z,56.60
2023-05-11T03:36:06.760Z,55.98
2023-05-11T03:41:08.498Z,55.90
2023-05-11T03:46:13.758Z,54.58
2023-05-11T03:51:15.896Z,55.97
2023-05-11T03:56:17.702Z,55.68
2023-05-11T04:01:19.831Z,54.35
2023-05-11T04:06:21.589Z,54.49
2023-05-11T04:11:23.369Z,56.50
2023-05-11T04:16:25.152Z,54.13
2023-05-11T04:21:26.858Z,54.89
2023-05-11T04:26:28.794Z,55.17
2023-05-11T04:31:30.727Z,55.55
2023-05-11T04:36:33.038Z,53.03
2023-05-11T04:41:34.667Z,50.68
2023-05-11T04:46:38.609Z,50.86
2023-05-11T04:51:40.578Z,50.35
2023-05-11T04:56:42.300Z,51.21
2023-05-11T05:05:28.725Z,59.24
2023-05-11T05:10:30.410Z,58.22
2023-05-11T05:15:32.010Z,58.32
2023-05-11T05:20:35.140Z,59.49
2023-05-11T05:25:38.205Z,59.42
2023-05-11T05:30:39.930Z,58.42
2023-05-11T05:35:43.854Z,58.71
2023-05-11T05:40:45.554Z,58.42
2023-05-11T05:45:47.312Z,58.69
2023-05-11T05:50:48.896Z,57.85
2023-05-11T05:55:50.556Z,58.09
2023-05-11T06:00:52.695Z,56.88
2023-05-11T06:05:54.341Z,58.48
2023-05-11T06:10:56.269Z,56.35
2023-05-11T06:15:57.858Z,58.77
2023-05-11T06:20:59.874Z,54.73
2023-05-11T06:26:01.510Z,57.30
2023-05-11T06:31:03.838Z,56.69
2023-05-11T06:36:06.623Z,55.84
2023-05-11T06:41:11.202Z,57.94
2023-05-11T06:46:16.534Z,57.66
2023-05-11T06:51:18.148Z,56.97
2023-05-11T06:56:19.737Z,57.27
2023-05-11T07:01:21.382Z,58.06
2023-05-11T07:06:23.029Z,58.08
2023-05-11T07:11:25.665Z,57.52
2023-05-11T07:16:27.271Z,56.01
2023-05-11T07:21:28.891Z,55.66
2023-05-11T07:26:30.818Z,55.14
2023-05-11T07:31:33.656Z,55.49
2023-05-11T07:36:35.334Z,54.86
2023-05-11T07:41:36.969Z,54.82
2023-05-11T07:46:38.789Z,55.61
2023-05-11T07:51:40.411Z,54.81
2023-05-11T07:56:42.246Z,54.85
2023-05-11T08:01:44.035Z,54.51
2023-05-11T08:06:45.588Z,55.63
2023-05-11T08:11:47.244Z,54.71
2023-05-11T08:16:49.834Z,53.91
2023-05-11T08:21:51.554Z,53.21
2023-05-11T08:26:53.093Z,53.92
2023-05-11T08:31:54.821Z,53.81
2023-05-11T08:36:56.511Z,54.16
2023-05-11T08:41:59.582Z,52.63
2023-05-11T08:47:21.127Z,52.19
2023-05-11T08:52:23.574Z,53.05
2023-05-11T08:57:29.572Z,52.41
2023-05-11T09:02:32.134Z,54.27
2023-05-11T09:07:38.781Z,52.75
2023-05-11T09:12:40.726Z,52.08
2023-05-11T09:17:42.312Z,52.81
2023-05-11T09:22:46.010Z,53.00
2023-05-11T09:27:48.232Z,53.54
2023-05-11T09:32:53.070Z,52.79
2023-05-11T09:38:10.905Z,52.51
2023-05-11T09:43:31.165Z,51.98
2023-05-11T09:48:33.167Z,52.80
2023-05-11T09:53:44.602Z,53.47
2023-05-11T09:58:54.955Z,53.26
2023-05-11T10:04:06.096Z,52.08
2023-05-11T10:09:17.277Z,52.55
2023-05-11T10:14:19.604Z,51.23
2023-05-11T10:19:21.569Z,51.80
2023-05-11T10:24:23.533Z,50.02
2023-05-11T10:29:25.965Z,48.47
2023-05-11T10:34:29.368Z,51.47
2023-05-11T10:39:31.711Z,48.98
2023-05-11T10:44:51.520Z,51.32
2023-05-11T10:50:12.509Z,49.07
2023-05-11T10:55:28.353Z,48.70
2023-05-11T11:06:29.361Z,55.33
2023-05-11T11:11:36.240Z,53.02
2023-05-11T11:16:38.921Z,52.19
2023-05-11T11:21:42.655Z,52.34
2023-05-11T11:26:51.129Z,51.19
2023-05-11T11:31:52.721Z,52.54
2023-05-11T11:37:06.249Z,52.04
2023-05-11T11:42:14.148Z,51.74
2023-05-11T11:47:23.371Z,50.09
2023-05-11T11:52:27.947Z,50.95
2023-05-11T11:57:32.683Z,48.91
2023-05-11T12:02:35.146Z,48.95
2023-05-11T12:07:42.229Z,48.38
2023-05-11T12:12:48.672Z,48.63
2023-05-11T12:17:50.701Z,48.47
2023-05-11T12:22:53.639Z,47.71
2023-05-11T12:28:03.045Z,48.86
2023-05-11T12:33:08.264Z,48.32
2023-05-11T12:38:11.036Z,49.05
2023-05-11T12:43:18.097Z,48.81
2023-05-11T12:48:19.706Z,45.99
2023-05-11T12:53:23.037Z,46.41
2023-05-11T12:58:24.966Z,46.95
2023-05-11T13:03:27.635Z,46.36
2023-05-11T13:08:29.539Z,47.14
2023-05-11T13:13:31.196Z,46.21
2023-05-11T13:18:32.960Z,45.75
2023-05-11T13:23:34.741Z,46.37
2023-05-11T13:28:36.316Z,47.75
2023-05-11T13:33:37.886Z,46.31
2023-05-11T13:38:39.468Z,45.98
2023-05-11T13:43:41.078Z,47.00
2023-05-11T13:48:43.199Z,47.70
2023-05-11T13:53:44.753Z,46.68
2023-05-11T13:58:46.360Z,46.90
2023-05-11T14:03:52.460Z,46.94
2023-05-11T14:08:55.014Z,46.79
2023-05-11T14:13:56.719Z,49.03
2023-05-11T14:18:58.401Z,47.87
2023-05-11T14:24:11.616Z,49.09
2023-05-11T14:29:14.099Z,46.33
2023-05-11T14:34:16.319Z,45.90
2023-05-11T14:39:17.887Z,45.69
2023-05-11T14:44:19.484Z,46.82
2023-05-11T14:49:21.173Z,46.84
2023-05-11T14:54:22.749Z,45.88
2023-05-11T14:59:24.501Z,46.23
2023-05-11T15:04:27.073Z,44.57
2023-05-11T15:09:28.753Z,45.37
2023-05-11T15:14:30.548Z,45.25
2023-05-11T15:19:32.280Z,46.14
2023-05-11T15:24:34.099Z,44.70
2023-05-11T15:29:35.838Z,45.26
2023-05-11T15:34:47.298Z,44.84
2023-05-11T15:39:57.183Z,44.73
2023-05-11T15:44:58.817Z,44.71
2023-05-11T15:50:00.505Z,45.16
2023-05-11T15:55:02.536Z,45.14
2023-05-11T16:00:04.927Z,44.78
2023-05-11T16:05:06.948Z,44.82
2023-05-11T16:10:09.155Z,44.17
2023-05-11T16:15:11.292Z,43.84
2023-05-11T16:20:13.120Z,43.79
2023-05-11T16:25:14.884Z,42.61
2023-05-11T16:30:24.028Z,43.79
2023-05-11T16:35:26.957Z,42.93
2023-05-11T16:40:28.639Z,43.88
2023-05-11T16:45:30.400Z,44.47
2023-05-11T16:50:32.531Z,44.98
2023-05-11T16:55:34.176Z,44.51
2023-05-11T17:00:36.242Z,44.33
2023-05-11T17:05:37.954Z,44.82
2023-05-11T17:10:40.746Z,43.92
2023-05-11T17:15:42.410Z,43.54
2023-05-11T17:20:44.111Z,43.72
2023-05-11T17:25:45.812Z,44.53
2023-05-11T17:30:52.402Z,45.25
2023-05-11T17:35:54.453Z,44.21
2023-05-11T17:40:58.497Z,45.95
2023-05-11T17:46:00.620Z,45.55
2023-05-11T17:51:02.595Z,44.84
2023-05-11T17:56:04.470Z,45.89
2023-05-11T18:01:11.150Z,43.81
2023-05-11T18:06:12.875Z,45.50
2023-05-11T18:11:14.681Z,44.98
2023-05-11T18:16:17.737Z,48.56
2023-05-11T18:21:19.549Z,48.98
2023-05-11T18:26:22.323Z,49.28
2023-05-11T18:31:24.059Z,51.33
2023-05-11T18:36:26.279Z,52.16
2023-05-11T18:41:28.497Z,53.38
2023-05-11T18:46:30.316Z,53.24
2023-05-11T18:51:31.971Z,54.11
2023-05-11T18:56:33.782Z,53.29
2023-05-11T19:01:46.740Z,55.49
2023-05-11T19:06:49.356Z,54.27
2023-05-11T19:11:51.115Z,56.52
2023-05-11T19:16:52.884Z,56.12
2023-05-11T19:21:54.515Z,55.27
2023-05-11T19:27:06.648Z,57.62
2023-05-11T19:32:09.744Z,55.69
2023-05-11T19:37:11.399Z,55.58
2023-05-11T19:42:13.099Z,55.61
2023-05-11T19:47:14.835Z,57.91
2023-05-11T19:52:16.537Z,57.60
2023-05-11T19:57:18.587Z,56.79
2023-05-11T20:02:21.594Z,55.73
2023-05-11T20:07:23.923Z,55.59
2023-05-11T20:12:25.711Z,55.88
2023-05-11T20:17:27.459Z,56.20
2023-05-11T20:22:29.351Z,56.06
2023-05-11T20:27:31.057Z,55.70
2023-05-11T20:32:32.766Z,54.58
2023-05-11T20:37:34.878Z,55.37
2023-05-11T20:42:38.236Z,55.27
2023-05-11T20:47:39.968Z,55.30
2023-05-11T20:52:41.680Z,57.51
2023-05-11T20:57:43.420Z,57.98
2023-05-11T21:02:46.112Z,58.28
2023-05-11T21:07:47.835Z,57.83
2023-05-11T21:12:49.913Z,58.67
2023-05-11T21:17:51.615Z,58.12
2023-05-11T21:22:53.774Z,57.76
2023-05-11T21:27:55.481Z,54.92
2023-05-11T21:32:57.239Z,59.94
2023-05-11T21:37:58.910Z,57.38
2023-05-11T21:43:00.715Z,58.95
2023-05-11T21:48:02.547Z,59.72
2023-05-11T21:53:04.909Z,59.40
2023-05-11T21:58:06.653Z,60.44
2023-05-11T22:03:09.240Z,59.93
2023-05-11T22:08:15.547Z,59.82
2023-05-11T22:13:17.669Z,58.54
2023-05-11T22:18:19.370Z,60.58
2023-05-11T22:23:21.533Z,60.75
2023-05-11T22:28:23.322Z,59.83
2023-05-11T22:33:25.148Z,60.78
2023-05-11T22:38:26.961Z,58.89
2023-05-11T22:43:28.737Z,57.97
2023-05-11T22:48:30.527Z,58.75
2023-05-11T22:53:32.646Z,59.05
2023-05-11T22:58:34.382Z,58.97
2023-05-11T23:03:36.185Z,60.37
2023-05-11T23:08:37.876Z,59.74
2023-05-11T23:13:41.488Z,57.96
2023-05-11T23:18:44.660Z,57.92
2023-05-11T23:23:46.424Z,60.04
2023-05-11T23:28:48.195Z,57.77
2023-05-11T23:33:49.854Z,60.56
2023-05-11T23:38:51.535Z,58.20
2023-05-11T23:43:53.182Z,57.43
2023-05-11T23:48:55.839Z,59.95
2023-05-11T23:53:57.594Z,60.49
2023-05-11T23:58:59.950Z,61.03
